Time;durP1;ratioP1;P1;durP2;ratioP2;P2;SDS_P1;SDS_P2;PMS_P1;PMS_P2;Temp;Humidity;BMP_temperature;BMP_pressure;BME280_temperature;BME280_humidity;BME280_pressure;Samples;Min_cycle;Max_cycle;Signal;HPM_P1;HPM_P2
2021/11/27 00:00:08;;;;;;;0.57;0.57;;;;;;;;;;7330774;19;153857;-14
2021/11/27 00:02:45;;;;;;;0.68;0.68;;;;;;;;;;7327168;19;161978;-14
2021/11/27 00:05:17;;;;;;;0.60;0.60;;;;;;;;;;7327100;19;162352;-14
2021/11/27 00:07:49;;;;;;;0.80;0.80;;;;;;;;;;7327591;19;154025;-14
2021/11/27 00:10:23;;;;;;;1.33;0.70;;;;;;;;;;7326292;19;153821;-15
2021/11/27 00:12:56;;;;;;;0.82;0.82;;;;;;;;;;7327520;19;161893;-16
2021/11/27 00:15:29;;;;;;;0.70;0.70;;;;;;;;;;7328388;19;162603;-16
2021/11/27 00:18:07;;;;;;;0.88;0.77;;;;;;;;;;7331513;19;153954;-13
2021/11/27 00:20:42;;;;;;;0.70;0.70;;;;;;;;;;7324693;19;153536;-15
2021/11/27 00:23:14;;;;;;;0.70;0.70;;;;;;;;;;7326321;19;161914;-13
2021/11/27 00:25:46;;;;;;;0.73;0.73;;;;;;;;;;7330758;19;162508;-12
2021/11/27 00:28:18;;;;;;;1.27;0.55;;;;;;;;;;7336804;19;154175;-14
2021/11/27 00:30:50;;;;;;;0.73;0.73;;;;;;;;;;7334116;19;153584;-13
2021/11/27 00:33:24;;;;;;;0.70;0.70;;;;;;;;;;7333184;19;162119;-13
2021/11/27 00:35:56;;;;;;;0.70;0.70;;;;;;;;;;7333543;19;162664;-15
2021/11/27 00:38:28;;;;;;;0.50;0.50;;;;;;;;;;7333629;19;154154;-14
2021/11/27 00:41:00;;;;;;;0.80;0.80;;;;;;;;;;7332392;19;153610;-15
2021/11/27 00:43:32;;;;;;;0.50;0.50;;;;;;;;;;7332991;19;161597;-14
2021/11/27 00:46:05;;;;;;;0.63;0.63;;;;;;;;;;7332771;19;162541;-14
2021/11/27 00:48:40;;;;;;;0.70;0.70;;;;;;;;;;7332811;19;156233;-12
2021/11/27 00:51:15;;;;;;;0.70;0.70;;;;;;;;;;7336528;19;153601;-13
2021/11/27 00:53:47;;;;;;;0.60;0.60;;;;;;;;;;7333428;19;161958;-15
2021/11/27 00:56:20;;;;;;;0.45;0.45;;;;;;;;;;7332969;19;162537;-13
2021/11/27 00:58:51;;;;;;;;;;;;;;;;;;7336504;19;154015;-15
2021/11/27 01:01:25;;;;;;;0.55;0.55;;;;;;;;;;7335569;19;153598;-13
2021/11/27 01:04:00;;;;;;;0.60;0.60;;;;;;;;;;7333318;19;162080;-13
2021/11/27 01:06:32;;;;;;;0.60;0.60;;;;;;;;;;7332901;19;162404;-13
2021/11/27 01:09:08;;;;;;;0.73;0.73;;;;;;;;;;7334330;19;154036;-15
2021/11/27 01:11:42;;;;;;;0.65;0.65;;;;;;;;;;7330955;19;153603;-15
2021/11/27 01:14:19;;;;;;;0.68;0.65;;;;;;;;;;7334317;19;161924;-16
2021/11/27 01:16:55;;;;;;;0.60;0.60;;;;;;;;;;7333111;19;162563;-15
2021/11/27 01:19:30;;;;;;;0.65;0.63;;;;;;;;;;7334357;19;153921;-16
2021/11/27 01:22:08;;;;;;;0.50;0.50;;;;;;;;;;7332141;19;154374;-12
2021/11/27 01:24:43;;;;;;;0.60;0.60;;;;;;;;;;7331068;19;162049;-14
2021/11/27 01:27:17;;;;;;;0.60;0.60;;;;;;;;;;7328929;19;162479;-14
2021/11/27 01:29:50;;;;;;;0.50;0.50;;;;;;;;;;7330450;19;154047;-12
2021/11/27 01:32:26;;;;;;;0.88;0.70;;;;;;;;;;7334376;19;153602;-14
2021/11/27 01:35:03;;;;;;;0.50;0.50;;;;;;;;;;7333585;19;161950;-15
2021/11/27 01:37:38;;;;;;;0.50;0.50;;;;;;;;;;7324916;19;162486;-12
2021/11/27 01:40:26;;;;;;;0.60;0.60;;;;;;;;;;7327120;19;154797;-14
2021/11/27 01:43:18;;;;;;;0.70;0.70;;;;;;;;;;7331604;19;153648;-14
2021/11/27 01:45:52;;;;;;;0.52;0.52;;;;;;;;;;7329958;19;161933;-12
2021/11/27 01:48:24;;;;;;;0.50;0.50;;;;;;;;;;7327446;19;162824;-14
2021/11/27 01:51:01;;;;;;;0.60;0.60;;;;;;;;;;7329915;19;153940;-13
2021/11/27 01:53:35;;;;;;;0.57;0.57;;;;;;;;;;7331299;19;153827;-12
2021/11/27 01:56:10;;;;;;;0.70;0.70;;;;;;;;;;7329597;19;161832;-13
2021/11/27 01:58:42;;;;;;;1.02;0.93;;;;;;;;;;7329415;19;164102;-14
2021/11/27 02:01:19;;;;;;;1.30;1.00;;;;;;;;;;7331256;19;154178;-14
2021/11/27 09:26:18;;;;;;;0.60;0.60;;;;;;;;;;7370454;19;132696;-16
2021/11/27 09:28:51;;;;;;;0.40;0.40;;;;;;;;;;7364481;19;153504;-15
2021/11/27 09:31:24;;;;;;;0.57;0.57;;;;;;;;;;7364075;19;161957;-14
2021/11/27 09:33:56;;;;;;;1.02;0.60;;;;;;;;;;7363495;19;162404;-13
2021/11/27 09:36:29;;;;;;;0.40;0.40;;;;;;;;;;7364383;19;154038;-15
2021/11/27 09:39:01;;;;;;;0.35;0.32;;;;;;;;;;7364199;19;153672;-13
2021/11/27 09:41:40;;;;;;;0.45;0.45;;;;;;;;;;7363481;19;162047;-13
2021/11/27 09:44:17;;;;;;;0.50;0.50;;;;;;;;;;7363673;19;162392;-13
2021/11/27 09:46:50;;;;;;;0.60;0.60;;;;;;;;;;7364052;19;154380;-15
2021/11/27 09:49:23;;;;;;;0.40;0.40;;;;;;;;;;7363653;19;153577;-13
2021/11/27 09:51:56;;;;;;;0.40;0.40;;;;;;;;;;7363205;19;162157;-13
2021/11/27 09:54:28;;;;;;;0.55;0.55;;;;;;;;;;7362845;19;162845;-13
2021/11/27 09:57:06;;;;;;;0.80;0.43;;;;;;;;;;7364204;19;154120;-16
2021/11/27 09:59:39;;;;;;;0.30;0.30;;;;;;;;;;7363900;19;153828;-14
2021/11/27 10:02:13;;;;;;;0.50;0.50;;;;;;;;;;7363502;19;161835;-14
2021/11/27 10:04:54;;;;;;;0.43;0.43;;;;;;;;;;7363303;19;162586;-13
2021/11/27 10:07:27;;;;;;;0.38;0.38;;;;;;;;;;7363557;19;154051;-13
2021/11/27 10:10:00;;;;;;;0.60;0.60;;;;;;;;;;7363601;19;153801;-12
2021/11/27 10:12:36;;;;;;;0.47;0.45;;;;;;;;;;7362950;19;161859;-12
2021/11/27 10:15:10;;;;;;;0.60;0.50;;;;;;;;;;7360340;19;162441;-12
2021/11/27 10:17:43;;;;;;;0.35;0.35;;;;;;;;;;7363325;19;154329;-13
2021/11/27 10:20:20;;;;;;;0.40;0.40;;;;;;;;;;7362207;19;154162;-13
2021/11/27 10:22:55;;;;;;;0.40;0.40;;;;;;;;;;7362950;19;161952;-14
2021/11/27 10:25:31;;;;;;;0.40;0.40;;;;;;;;;;7351449;19;162150;-13
2021/11/27 10:28:09;;;;;;;0.43;0.40;;;;;;;;;;7334036;19;153940;-13
2021/11/27 10:30:55;;;;;;;0.52;0.50;;;;;;;;;;7332864;19;153704;-13
2021/11/27 10:33:29;;;;;;;0.38;0.38;;;;;;;;;;7333625;19;161837;-13
2021/11/27 10:36:04;;;;;;;0.50;0.50;;;;;;;;;;7331658;19;162957;-14
2021/11/27 10:38:43;;;;;;;0.50;0.50;;;;;;;;;;7333821;19;154118;-14
2021/11/27 10:41:17;;;;;;;0.50;0.50;;;;;;;;;;7333922;19;153646;-15
2021/11/27 10:44:04;;;;;;;0.50;0.50;;;;;;;;;;7333423;19;162375;-16
2021/11/27 10:46:38;;;;;;;0.30;0.30;;;;;;;;;;7333015;19;162536;-13
2021/11/27 10:49:12;;;;;;;0.50;0.50;;;;;;;;;;7333356;19;154360;-13
2021/11/27 10:51:44;;;;;;;0.50;0.50;;;;;;;;;;7332279;19;153513;-13
2021/11/27 10:54:16;;;;;;;0.40;0.40;;;;;;;;;;7332917;19;162077;-13
2021/11/27 10:56:50;;;;;;;0.60;0.53;;;;;;;;;;7330192;19;162565;-13
2021/11/27 10:59:25;;;;;;;0.60;0.60;;;;;;;;;;7333291;19;154108;-14
2021/11/27 11:02:08;;;;;;;0.50;0.50;;;;;;;;;;7332797;19;153640;-13
2021/11/27 11:04:40;;;;;;;0.50;0.50;;;;;;;;;;7332466;19;161745;-13
2021/11/27 11:07:17;;;;;;;0.65;0.57;;;;;;;;;;7332456;19;162672;-14
2021/11/27 11:10:06;;;;;;;0.73;0.55;;;;;;;;;;7332741;19;153932;-14
2021/11/27 11:12:40;;;;;;;0.63;0.40;;;;;;;;;;7332937;19;153859;-14
2021/11/27 11:15:22;;;;;;;0.40;0.38;;;;;;;;;;7332033;19;162086;-13
2021/11/27 11:17:56;;;;;;;0.47;0.45;;;;;;;;;;7331193;19;162568;-13
2021/11/27 11:20:30;;;;;;;0.47;0.40;;;;;;;;;;7332650;19;153980;-15
2021/11/27 11:23:05;;;;;;;1.05;0.50;;;;;;;;;;7332586;19;153435;-14
2021/11/27 11:25:39;;;;;;;0.40;0.40;;;;;;;;;;7329743;19;161841;-14
2021/11/27 11:28:18;;;;;;;0.47;0.47;;;;;;;;;;7332150;19;162480;-14
2021/11/27 11:30:55;;;;;;;0.40;0.38;;;;;;;;;;7332450;19;154162;-13
2021/11/27 11:33:27;;;;;;;0.40;0.40;;;;;;;;;;7331304;19;153929;-13
2021/11/27 11:35:59;;;;;;;0.50;0.50;;;;;;;;;;7330671;19;161819;-13
2021/11/27 11:38:30;;;;;;;0.50;0.50;;;;;;;;;;7328967;19;162523;-13
2021/11/27 11:41:02;;;;;;;0.40;0.40;;;;;;;;;;7332399;19;154068;-15
2021/11/27 11:43:33;;;;;;;0.50;0.50;;;;;;;;;;7331933;19;153465;-13
2021/11/27 11:46:08;;;;;;;0.40;0.40;;;;;;;;;;7331401;19;161823;-14
2021/11/27 11:48:43;;;;;;;0.38;0.38;;;;;;;;;;7330148;19;162406;-14
2021/11/27 11:51:26;;;;;;;0.47;0.47;;;;;;;;;;7330903;19;154010;-15
2021/11/27 11:54:00;;;;;;;0.40;0.40;;;;;;;;;;7331939;19;153733;-13
2021/11/27 11:56:37;;;;;;;0.40;0.40;;;;;;;;;;7329616;19;161994;-14
2021/11/27 11:59:25;;;;;;;0.95;0.50;;;;;;;;;;7330121;19;162414;-14
2021/11/27 12:02:15;;;;;;;0.40;0.40;;;;;;;;;;7330332;19;154130;-15
2021/11/27 12:05:12;;;;;;;0.40;0.40;;;;;;;;;;7331410;19;153509;-14
2021/11/27 12:07:52;;;;;;;0.50;0.47;;;;;;;;;;7330921;19;162146;-14
2021/11/27 12:10:45;;;;;;;0.40;0.40;;;;;;;;;;7330771;19;162708;-12
2021/11/27 12:13:18;;;;;;;0.45;0.45;;;;;;;;;;7331301;19;154021;-13
2021/11/27 12:15:50;;;;;;;0.40;0.40;;;;;;;;;;7330422;19;153605;-12
2021/11/27 12:18:24;;;;;;;0.45;0.45;;;;;;;;;;7331354;19;161976;-14
2021/11/27 12:20:58;;;;;;;0.43;0.43;;;;;;;;;;7330819;19;162418;-13
2021/11/27 12:23:38;;;;;;;0.40;0.40;;;;;;;;;;7330974;19;153877;-13
2021/11/27 12:26:24;;;;;;;0.30;0.30;;;;;;;;;;7326964;19;152886;-13
2021/11/27 12:29:14;;;;;;;0.68;0.50;;;;;;;;;;7329579;19;162362;-15
2021/11/27 12:31:48;;;;;;;0.50;0.50;;;;;;;;;;7329689;19;162572;-14
2021/11/27 12:34:40;;;;;;;0.60;0.60;;;;;;;;;;7329968;19;154177;-14
2021/11/27 12:37:27;;;;;;;0.40;0.40;;;;;;;;;;7328851;19;153556;-15
2021/11/27 12:39:59;;;;;;;0.50;0.50;;;;;;;;;;7330559;19;161787;-13
2021/11/27 12:42:37;;;;;;;0.50;0.50;;;;;;;;;;7330639;19;162410;-14
2021/11/27 12:45:11;;;;;;;0.50;0.50;;;;;;;;;;7329668;19;154245;-14
2021/11/27 12:47:44;;;;;;;0.57;0.50;;;;;;;;;;7330862;19;154160;-14
2021/11/27 12:50:23;;;;;;;;;;;;;;;;;;7329928;19;161953;-12
2021/11/27 12:52:55;;;;;;;0.50;0.50;;;;;;;;;;7330320;19;162660;-15
2021/11/27 12:55:43;;;;;;;0.43;0.40;;;;;;;;;;7330290;19;154036;-13
2021/11/27 12:58:29;;;;;;;0.30;0.30;;;;;;;;;;7330686;19;153502;-15
2021/11/27 13:01:00;;;;;;;0.50;0.40;;;;;;;;;;7330021;19;161988;-14
2021/11/27 13:03:34;;;;;;;0.40;0.40;;;;;;;;;;7329770;19;162571;-14
2021/11/27 13:06:08;;;;;;;0.30;0.30;;;;;;;;;;7329797;19;153942;-15
2021/11/27 13:08:39;;;;;;;0.40;0.40;;;;;;;;;;7329576;19;153533;-14
2021/11/27 13:11:22;;;;;;;0.60;0.60;;;;;;;;;;7329246;19;161946;-12
2021/11/27 13:13:54;;;;;;;0.43;0.43;;;;;;;;;;7329150;19;162560;-14
2021/11/27 13:16:28;;;;;;;0.47;0.47;;;;;;;;;;7328563;19;153850;-14
2021/11/27 13:18:59;;;;;;;0.40;0.40;;;;;;;;;;7329256;19;153576;-13
2021/11/27 13:21:33;;;;;;;0.40;0.40;;;;;;;;;;7328947;19;161915;-14
2021/11/27 13:24:06;;;;;;;0.80;0.50;;;;;;;;;;7328223;19;162419;-16
2021/11/27 13:26:38;;;;;;;0.50;0.50;;;;;;;;;;7329141;19;153930;-16
2021/11/27 13:29:09;;;;;;;0.52;0.52;;;;;;;;;;7329141;19;153539;-13
2021/11/27 13:31:42;;;;;;;0.40;0.40;;;;;;;;;;7328288;19;161919;-15
2021/11/27 13:34:16;;;;;;;0.50;0.50;;;;;;;;;;7328100;19;162375;-15
2021/11/27 13:36:59;;;;;;;0.40;0.40;;;;;;;;;;7327542;19;153960;-13
2021/11/27 13:39:33;;;;;;;0.40;0.40;;;;;;;;;;7328349;19;153692;-14
2021/11/27 13:42:08;;;;;;;0.50;0.50;;;;;;;;;;7327955;19;161910;-13
2021/11/27 13:44:45;;;;;;;0.50;0.50;;;;;;;;;;7327592;19;162395;-14
2021/11/27 13:47:18;;;;;;;0.50;0.50;;;;;;;;;;7328033;19;154069;-15
2021/11/27 13:49:49;;;;;;;;;;;;;;;;;;7328470;19;153491;-13
2021/11/27 13:52:25;;;;;;;0.30;0.30;;;;;;;;;;7327731;19;162049;-14
2021/11/27 13:54:59;;;;;;;0.50;0.50;;;;;;;;;;7327504;19;162349;-15
2021/11/27 13:57:31;;;;;;;0.43;0.43;;;;;;;;;;7326619;19;154069;-14
2021/11/27 14:00:14;;;;;;;0.30;0.30;;;;;;;;;;7327584;19;153804;-13
2021/11/27 14:02:46;;;;;;;0.40;0.40;;;;;;;;;;7333045;19;161866;-14
2021/11/27 14:05:18;;;;;;;0.65;0.50;;;;;;;;;;7334119;19;162437;-13
2021/11/27 14:07:52;;;;;;;1.08;0.60;;;;;;;;;;7334751;19;154043;-13
2021/11/27 14:10:25;;;;;;;0.40;0.40;;;;;;;;;;7334318;19;153736;-13
2021/11/27 14:13:04;;;;;;;0.50;0.50;;;;;;;;;;7334370;19;162054;-14
2021/11/27 14:15:39;;;;;;;0.40;0.40;;;;;;;;;;7334426;19;162669;-14
2021/11/27 14:18:14;;;;;;;0.32;0.32;;;;;;;;;;7333084;19;153939;-14
2021/11/27 14:20:47;;;;;;;0.55;0.55;;;;;;;;;;7333457;19;153492;-14
2021/11/27 14:23:23;;;;;;;0.40;0.40;;;;;;;;;;7334026;19;161834;-14
2021/11/27 14:26:07;;;;;;;0.50;0.50;;;;;;;;;;7331656;19;162553;-14
2021/11/27 14:28:45;;;;;;;0.47;0.47;;;;;;;;;;7334241;19;154247;-15
2021/11/27 14:31:19;;;;;;;0.65;0.65;;;;;;;;;;7334054;19;153598;-14
2021/11/27 14:34:02;;;;;;;0.40;0.40;;;;;;;;;;7333702;19;162026;-14
2021/11/27 14:36:37;;;;;;;0.47;0.47;;;;;;;;;;7333500;19;162401;-14
2021/11/27 14:39:22;;;;;;;0.30;0.30;;;;;;;;;;7331613;19;154056;-14
2021/11/27 14:42:03;;;;;;;0.50;0.50;;;;;;;;;;7334180;19;153633;-14
2021/11/27 14:44:35;;;;;;;0.63;0.40;;;;;;;;;;7333453;19;162173;-14
2021/11/27 14:47:09;;;;;;;0.30;0.30;;;;;;;;;;7333211;19;162566;-13
2021/11/27 14:49:42;;;;;;;0.57;0.55;;;;;;;;;;7332483;19;154097;-14
2021/11/27 14:52:27;;;;;;;0.47;0.47;;;;;;;;;;7332421;19;153597;-12
2021/11/27 14:55:03;;;;;;;0.40;0.40;;;;;;;;;;7333116;19;161787;-12
2021/11/27 14:57:36;;;;;;;0.50;0.50;;;;;;;;;;7332541;19;162468;-13
2021/11/27 15:00:10;;;;;;;0.57;0.57;;;;;;;;;;7333594;19;153984;-13
2021/11/27 15:02:47;;;;;;;0.40;0.40;;;;;;;;;;7332361;19;153566;-14
2021/11/27 15:05:20;;;;;;;0.40;0.40;;;;;;;;;;7332732;19;161905;-15
2021/11/27 15:07:51;;;;;;;0.40;0.40;;;;;;;;;;7331263;19;162647;-13
2021/11/27 15:10:27;;;;;;;0.40;0.40;;;;;;;;;;7333027;19;154042;-14
2021/11/27 15:12:58;;;;;;;0.50;0.50;;;;;;;;;;7332494;19;153892;-25
2021/11/27 15:15:30;;;;;;;0.47;0.47;;;;;;;;;;7332216;19;161835;-13
2021/11/27 15:18:01;;;;;;;0.40;0.40;;;;;;;;;;7331775;19;162608;-14
2021/11/27 15:20:33;;;;;;;0.40;0.40;;;;;;;;;;7332859;19;154022;-12
2021/11/27 15:23:04;;;;;;;0.70;0.50;;;;;;;;;;7332674;19;153564;-13
2021/11/27 15:25:39;;;;;;;0.50;0.50;;;;;;;;;;7330019;19;161857;-13
2021/11/27 15:28:11;;;;;;;0.50;0.50;;;;;;;;;;7332290;19;162506;-13
2021/11/27 15:30:42;;;;;;;0.50;0.50;;;;;;;;;;7332707;19;154038;-13
2021/11/27 15:33:14;;;;;;;0.60;0.60;;;;;;;;;;7332342;19;153549;-15
2021/11/27 15:35:45;;;;;;;0.55;0.55;;;;;;;;;;7331958;19;161800;-13
2021/11/27 15:38:18;;;;;;;0.40;0.40;;;;;;;;;;7331052;19;162363;-14
2021/11/27 15:40:53;;;;;;;1.17;0.50;;;;;;;;;;7331408;19;154504;-14
2021/11/27 15:43:24;;;;;;;0.40;0.40;;;;;;;;;;7332329;19;153500;-14
2021/11/27 15:45:56;;;;;;;0.50;0.50;;;;;;;;;;7331759;19;161748;-13
2021/11/27 15:48:27;;;;;;;0.40;0.40;;;;;;;;;;7330429;19;162423;-13
2021/11/27 15:50:59;;;;;;;0.50;0.50;;;;;;;;;;7332089;19;154246;-13
2021/11/27 15:53:30;;;;;;;0.60;0.57;;;;;;;;;;7330702;19;153545;-13
2021/11/27 15:56:04;;;;;;;0.50;0.50;;;;;;;;;;7331527;19;161904;-13
2021/11/27 15:58:36;;;;;;;0.50;0.50;;;;;;;;;;7330576;19;162450;-12
2021/11/27 16:01:09;;;;;;;0.50;0.50;;;;;;;;;;7331780;19;154196;-14
2021/11/27 16:03:42;;;;;;;0.73;0.50;;;;;;;;;;7331514;19;153557;-21
2021/11/27 16:06:13;;;;;;;0.60;0.60;;;;;;;;;;7329767;19;161863;-14
2021/11/27 16:08:45;;;;;;;0.50;0.50;;;;;;;;;;7329824;19;162605;-14
2021/11/27 16:11:19;;;;;;;0.50;0.40;;;;;;;;;;7331248;19;154047;-13
2021/11/27 16:13:50;;;;;;;1.30;0.57;;;;;;;;;;7331057;19;153645;-11
2021/11/27 16:16:22;;;;;;;0.68;0.68;;;;;;;;;;7330822;19;161899;-14
2021/11/27 16:18:55;;;;;;;0.60;0.55;;;;;;;;;;7329586;19;162491;-13
2021/11/27 16:21:26;;;;;;;;;;;;;;;;;;7331524;19;153968;-12
2021/11/27 16:23:58;;;;;;;0.55;0.55;;;;;;;;;;7328704;19;153332;-13
2021/11/27 16:26:32;;;;;;;0.40;0.40;;;;;;;;;;7330198;19;161976;-11
2021/11/27 16:29:04;;;;;;;0.32;0.32;;;;;;;;;;7330068;19;162518;-12
2021/11/27 16:31:35;;;;;;;0.73;0.73;;;;;;;;;;7330798;19;154122;-12
2021/11/27 16:34:09;;;;;;;0.40;0.40;;;;;;;;;;7334598;19;153504;-12
2021/11/27 16:36:40;;;;;;;0.70;0.65;;;;;;;;;;7332963;19;161968;-12
2021/11/27 16:39:13;;;;;;;0.80;0.80;;;;;;;;;;7332592;19;162519;-13
2021/11/27 16:41:48;;;;;;;1.20;0.65;;;;;;;;;;7335066;19;154132;-11
2021/11/27 16:44:19;;;;;;;1.20;0.60;;;;;;;;;;7330750;19;153988;-12
2021/11/27 16:46:50;;;;;;;0.50;0.50;;;;;;;;;;7331485;19;161912;-11
2021/11/27 16:49:22;;;;;;;0.52;0.52;;;;;;;;;;7331196;19;162591;-14
2021/11/27 16:51:54;;;;;;;0.73;0.73;;;;;;;;;;7328749;19;153947;-11
2021/11/27 16:54:25;;;;;;;0.60;0.60;;;;;;;;;;7330838;19;153695;-12
2021/11/27 16:56:59;;;;;;;0.75;0.57;;;;;;;;;;7333425;19;161920;-13
2021/11/27 16:59:33;;;;;;;0.60;0.60;;;;;;;;;;7328599;19;162384;-13
2021/11/27 17:02:05;;;;;;;0.95;0.70;;;;;;;;;;7329582;19;154112;-12
2021/11/27 17:04:36;;;;;;;0.60;0.60;;;;;;;;;;7329617;19;153574;-14
2021/11/27 17:07:08;;;;;;;1.10;1.00;;;;;;;;;;7332970;19;161805;-14
2021/11/27 17:09:39;;;;;;;0.85;0.65;;;;;;;;;;7327294;19;162894;-12
2021/11/27 17:12:13;;;;;;;0.70;0.70;;;;;;;;;;7332192;19;153920;-12
2021/11/27 17:14:45;;;;;;;0.82;0.70;;;;;;;;;;7330594;19;153688;-12
2021/11/27 17:17:16;;;;;;;1.38;0.60;;;;;;;;;;7329634;19;161795;-13
2021/11/27 17:19:48;;;;;;;0.50;0.50;;;;;;;;;;7328996;19;162319;-12
2021/11/27 17:22:22;;;;;;;0.63;0.63;;;;;;;;;;7331381;19;154289;-13
2021/11/27 17:24:57;;;;;;;0.63;0.60;;;;;;;;;;7327450;19;153514;-12
2021/11/27 17:27:36;;;;;;;0.50;0.50;;;;;;;;;;7328781;19;161967;-12
2021/11/27 17:30:11;;;;;;;0.77;0.60;;;;;;;;;;7328604;19;162686;-13
2021/11/27 17:32:46;;;;;;;0.63;0.63;;;;;;;;;;7328077;19;154128;-14
2021/11/27 17:35:19;;;;;;;0.95;0.70;;;;;;;;;;7328975;19;153933;-14
2021/11/27 17:37:51;;;;;;;;;;;;;;;;;;7337035;19;162171;-14
2021/11/27 17:40:23;;;;;;;0.82;0.65;;;;;;;;;;7336377;19;162779;-13
2021/11/27 17:42:58;;;;;;;0.55;0.55;;;;;;;;;;7338971;19;154101;-14
2021/11/27 17:45:32;;;;;;;1.17;0.52;;;;;;;;;;7338063;19;153693;-14
2021/11/27 17:48:03;;;;;;;0.90;0.57;;;;;;;;;;7338644;19;161934;-14
2021/11/27 17:50:37;;;;;;;0.73;0.70;;;;;;;;;;7338440;19;162393;-14
2021/11/27 17:53:11;;;;;;;1.35;0.50;;;;;;;;;;7333767;19;153997;-13
2021/11/27 17:55:42;;;;;;;0.60;0.57;;;;;;;;;;7334334;19;153822;-13
2021/11/27 17:58:17;;;;;;;0.63;0.60;;;;;;;;;;7333942;19;162077;-16
2021/11/27 18:00:49;;;;;;;0.52;0.47;;;;;;;;;;7335525;19;162727;-13
2021/11/27 18:03:21;;;;;;;1.27;0.70;;;;;;;;;;7337547;19;154001;-14
2021/11/27 18:05:53;;;;;;;0.50;0.50;;;;;;;;;;7337343;19;153584;-14
2021/11/27 18:08:25;;;;;;;0.60;0.60;;;;;;;;;;7336852;19;161885;-13
2021/11/27 18:10:57;;;;;;;0.82;0.60;;;;;;;;;;7335042;19;163160;-13
2021/11/27 18:13:32;;;;;;;0.45;0.45;;;;;;;;;;7337327;19;153972;-14
2021/11/27 18:16:03;;;;;;;0.57;0.57;;;;;;;;;;7337638;19;153551;-14
2021/11/27 18:18:37;;;;;;;0.40;0.40;;;;;;;;;;7337208;19;161791;-13
2021/11/27 18:21:19;;;;;;;0.50;0.50;;;;;;;;;;7333315;19;162692;-13
2021/11/27 18:23:51;;;;;;;0.47;0.40;;;;;;;;;;7336422;19;154039;-13
2021/11/27 18:26:23;;;;;;;0.45;0.45;;;;;;;;;;7334198;19;153681;-12
2021/11/27 18:28:59;;;;;;;0.50;0.50;;;;;;;;;;7336094;19;162020;-14
2021/11/27 18:31:33;;;;;;;0.57;0.57;;;;;;;;;;7337338;19;162535;-15
2021/11/27 18:34:05;;;;;;;0.32;0.32;;;;;;;;;;7337811;19;154037;-14
2021/11/27 18:36:38;;;;;;;0.40;0.40;;;;;;;;;;7334455;19;153593;-13
2021/11/27 18:39:12;;;;;;;0.40;0.40;;;;;;;;;;7337064;19;161969;-12
2021/11/27 18:41:48;;;;;;;0.50;0.50;;;;;;;;;;7334193;19;162465;-14
2021/11/27 18:44:25;;;;;;;0.60;0.60;;;;;;;;;;7337537;19;153964;-14
2021/11/27 18:46:58;;;;;;;0.52;0.52;;;;;;;;;;7337216;19;154098;-13
2021/11/27 18:49:31;;;;;;;0.50;0.50;;;;;;;;;;7335912;19;161834;-13
2021/11/27 18:52:05;;;;;;;0.47;0.47;;;;;;;;;;7335799;19;162507;-14
2021/11/27 18:54:38;;;;;;;0.45;0.45;;;;;;;;;;7335064;19;154046;-14
2021/11/27 18:57:13;;;;;;;0.30;0.30;;;;;;;;;;7336898;19;153723;-14
2021/11/27 18:59:48;;;;;;;0.50;0.50;;;;;;;;;;7334697;19;161872;-14
2021/11/27 19:02:20;;;;;;;0.68;0.68;;;;;;;;;;7334174;19;162403;-12
2021/11/27 19:04:53;;;;;;;0.38;0.38;;;;;;;;;;7336990;19;154148;-14
2021/11/27 19:07:26;;;;;;;0.40;0.40;;;;;;;;;;7337465;19;153540;-13
2021/11/27 19:10:03;;;;;;;0.50;0.40;;;;;;;;;;7336237;19;161837;-14
2021/11/27 19:12:43;;;;;;;0.65;0.50;;;;;;;;;;7337025;19;162501;-14
2021/11/27 19:15:25;;;;;;;0.40;0.40;;;;;;;;;;7333491;19;154047;-14
2021/11/27 19:18:03;;;;;;;0.40;0.40;;;;;;;;;;7333360;19;153626;-15
2021/11/27 19:20:42;;;;;;;0.40;0.40;;;;;;;;;;7331769;19;161854;-16
2021/11/27 19:23:21;;;;;;;0.38;0.38;;;;;;;;;;7337012;19;162442;-13
2021/11/27 19:26:00;;;;;;;6.55;5.35;;;;;;;;;;7331929;19;154115;-13
2021/11/27 19:28:33;;;;;;;2.20;1.80;;;;;;;;;;7337202;19;153900;-14
2021/11/27 19:31:09;;;;;;;1.50;1.40;;;;;;;;;;7332409;19;161866;-12
2021/11/27 19:33:44;;;;;;;1.80;1.63;;;;;;;;;;7334360;19;162495;-13
2021/11/27 19:36:21;;;;;;;1.80;1.70;;;;;;;;;;7334614;19;153930;-11
2021/11/27 19:38:53;;;;;;;2.45;1.60;;;;;;;;;;7333231;19;153699;-12
2021/11/27 19:41:26;;;;;;;1.58;1.48;;;;;;;;;;7331226;19;161799;-14
2021/11/27 19:43:57;;;;;;;2.20;2.00;;;;;;;;;;7334418;19;163086;-13
2021/11/27 19:46:32;;;;;;;1.85;1.75;;;;;;;;;;7332728;19;154101;-13
2021/11/27 19:49:03;;;;;;;2.05;1.95;;;;;;;;;;7334063;19;153603;-14
2021/11/27 19:51:35;;;;;;;2.20;2.00;;;;;;;;;;7334258;19;162086;-13
2021/11/27 19:54:06;;;;;;;2.17;2.00;;;;;;;;;;7333969;19;162612;-13
2021/11/27 19:56:38;;;;;;;2.10;1.70;;;;;;;;;;7337170;19;154157;-14
2021/11/27 19:59:14;;;;;;;2.13;1.92;;;;;;;;;;7330946;19;153641;-13
2021/11/27 20:01:52;;;;;;;1.75;1.60;;;;;;;;;;7329488;19;162040;-14
2021/11/27 20:04:24;;;;;;;1.60;1.45;;;;;;;;;;7331913;19;162420;-14
2021/11/27 20:06:57;;;;;;;1.77;1.67;;;;;;;;;;7332186;19;154040;-13
2021/11/27 20:09:28;;;;;;;1.60;1.50;;;;;;;;;;7331898;19;153535;-14
2021/11/27 20:12:00;;;;;;;1.80;1.70;;;;;;;;;;7334039;19;161813;-15
2021/11/27 20:14:34;;;;;;;1.70;1.60;;;;;;;;;;7335540;19;162577;-14
2021/11/27 20:17:09;;;;;;;1.38;1.38;;;;;;;;;;7338035;19;153989;-15
2021/11/27 20:19:41;;;;;;;1.50;1.40;;;;;;;;;;7334967;19;153818;-14
2021/11/27 20:22:14;;;;;;;1.88;1.77;;;;;;;;;;7329637;19;162562;-13
2021/11/27 20:24:46;;;;;;;1.70;1.60;;;;;;;;;;7332942;19;162507;-13
2021/11/27 20:27:17;;;;;;;1.50;1.40;;;;;;;;;;7331148;19;154091;-13
2021/11/27 20:29:49;;;;;;;1.85;1.70;;;;;;;;;;7333567;19;153599;-13
2021/11/27 20:32:23;;;;;;;1.20;1.20;;;;;;;;;;7332572;19;161941;-14
2021/11/27 20:34:55;;;;;;;1.67;1.58;;;;;;;;;;7333145;19;162076;-14
2021/11/27 20:37:26;;;;;;;1.70;1.60;;;;;;;;;;7333933;19;155451;-13
2021/11/27 20:39:58;;;;;;;1.42;1.30;;;;;;;;;;7333182;19;153561;-14
2021/11/27 20:42:29;;;;;;;1.45;1.35;;;;;;;;;;7330873;19;161923;-14
2021/11/27 20:45:01;;;;;;;1.75;1.65;;;;;;;;;;7332330;19;162343;-12
2021/11/27 20:47:35;;;;;;;1.70;1.60;;;;;;;;;;7333530;19;154046;-14
2021/11/27 20:50:08;;;;;;;1.60;1.50;;;;;;;;;;7333110;19;154051;-13
2021/11/27 20:52:40;;;;;;;1.70;1.60;;;;;;;;;;7332984;19;161913;-14
2021/11/27 20:55:11;;;;;;;1.50;1.40;;;;;;;;;;7333185;19;162478;-14
2021/11/27 20:57:43;;;;;;;1.45;1.40;;;;;;;;;;7333341;19;154106;-13
2021/11/27 21:00:16;;;;;;;1.60;1.50;;;;;;;;;;7331769;19;153688;-14
2021/11/27 21:02:50;;;;;;;1.70;1.60;;;;;;;;;;7330716;19;161837;-12
2021/11/27 21:05:22;;;;;;;1.65;1.55;;;;;;;;;;7332792;19;162405;-13
2021/11/27 21:07:53;;;;;;;1.60;1.50;;;;;;;;;;7330408;19;154015;-15
2021/11/27 21:10:25;;;;;;;1.40;1.30;;;;;;;;;;7332717;19;153556;-13
2021/11/27 21:12:56;;;;;;;1.45;1.35;;;;;;;;;;7332072;19;161968;-13
2021/11/27 21:15:28;;;;;;;1.42;1.33;;;;;;;;;;7331842;19;162546;-14
2021/11/27 21:18:03;;;;;;;1.40;1.33;;;;;;;;;;7333679;19;154017;-13
2021/11/27 21:20:35;;;;;;;1.48;1.38;;;;;;;;;;7330720;19;153702;-15
2021/11/27 21:23:07;;;;;;;1.42;1.40;;;;;;;;;;7331398;19;162010;-13
2021/11/27 21:25:39;;;;;;;1.60;1.50;;;;;;;;;;7329959;19;162679;-13
2021/11/27 21:28:11;;;;;;;1.48;1.38;;;;;;;;;;7331950;19;154315;-12
2021/11/27 21:30:42;;;;;;;1.45;1.35;;;;;;;;;;7333326;19;153834;-13
2021/11/27 21:33:17;;;;;;;1.20;1.10;;;;;;;;;;7331965;19;162058;-13
2021/11/27 21:35:49;;;;;;;1.40;1.35;;;;;;;;;;7330358;19;162700;-13
2021/11/27 21:38:21;;;;;;;1.27;1.27;;;;;;;;;;7330845;19;154262;-13
2021/11/27 21:40:53;;;;;;;1.50;1.40;;;;;;;;;;7330569;19;153539;-12
2021/11/27 21:43:25;;;;;;;2.60;2.40;;;;;;;;;;7328701;19;161888;-12
2021/11/27 21:45:57;;;;;;;2.70;2.50;;;;;;;;;;7332357;19;162383;-20
2021/11/27 21:48:32;;;;;;;1.70;1.60;;;;;;;;;;7331166;19;154120;-15
2021/11/27 21:51:04;;;;;;;2.40;1.90;;;;;;;;;;7330965;19;153960;-14
2021/11/27 21:53:36;;;;;;;1.83;1.73;;;;;;;;;;7331587;19;161889;-13
2021/11/27 21:56:08;;;;;;;1.65;1.55;;;;;;;;;;7331230;19;162388;-14
2021/11/27 21:58:40;;;;;;;1.70;1.60;;;;;;;;;;7332510;19;153998;-13
2021/11/27 22:01:12;;;;;;;1.80;1.70;;;;;;;;;;7331317;19;153494;-12
2021/11/27 22:03:48;;;;;;;1.70;1.60;;;;;;;;;;7329511;19;162041;-14
2021/11/27 22:06:20;;;;;;;2.17;1.50;;;;;;;;;;7331236;19;162377;-15
2021/11/27 22:08:51;;;;;;;1.60;1.50;;;;;;;;;;7330903;19;153970;-14
2021/11/27 22:11:22;;;;;;;1.60;1.50;;;;;;;;;;7331043;19;153618;-13
2021/11/27 22:13:54;;;;;;;1.60;1.50;;;;;;;;;;7328258;19;161785;-14
2021/11/27 22:16:25;;;;;;;1.77;1.67;;;;;;;;;;7330054;19;162568;-14
2021/11/27 22:19:00;;;;;;;1.70;1.60;;;;;;;;;;7330412;19;153981;-14
2021/11/27 22:21:32;;;;;;;2.40;2.20;;;;;;;;;;7330491;19;153532;-14
2021/11/27 22:24:04;;;;;;;2.00;1.90;;;;;;;;;;7331942;19;162024;-14
2021/11/27 22:26:37;;;;;;;1.97;1.87;;;;;;;;;;7334938;19;162115;-13
2021/11/27 22:29:11;;;;;;;1.80;1.70;;;;;;;;;;7335720;19;154072;-14
2021/11/27 22:31:45;;;;;;;1.60;1.50;;;;;;;;;;7338428;19;153691;-13
2021/11/27 22:34:19;;;;;;;1.50;1.45;;;;;;;;;;7338284;19;161822;-14